createdAt,value
2023-02-08T00:01:48.466Z,102483.44
2023-02-08T00:04:14.880Z,102478.69
2023-02-08T00:06:41.682Z,102493.25
2023-02-08T00:09:09.014Z,102490.91
2023-02-08T00:11:35.434Z,102491.81
2023-02-08T00:14:01.912Z,102493.31
2023-02-08T00:16:29.204Z,102497.00
2023-02-08T00:18:56.314Z,102496.34
2023-02-08T00:21:22.840Z,102488.19
2023-02-08T00:23:49.980Z,102483.06
2023-02-08T00:26:17.680Z,102486.81
2023-02-08T00:28:50.379Z,102480.06
2023-02-08T00:31:17.398Z,102482.22
2023-02-08T00:33:44.212Z,102481.38
2023-02-08T00:36:11.788Z,102486.16
2023-02-08T00:38:38.484Z,102486.50
2023-02-08T00:41:05.828Z,102485.19
2023-02-08T00:43:33.923Z,102480.63
2023-02-08T00:46:00.792Z,102485.47
2023-02-08T00:48:28.439Z,102484.34
2023-02-08T00:51:09.726Z,102482.47
2023-02-08T00:53:37.928Z,102479.41
2023-02-08T00:56:05.544Z,102482.66
2023-02-08T00:58:32.215Z,102479.28
2023-02-08T01:00:59.363Z,102476.56
2023-02-08T01:03:25.998Z,102465.19
2023-02-08T01:05:54.265Z,102462.78
2023-02-08T01:08:21.543Z,102459.03
2023-02-08T01:10:49.549Z,102462.78
2023-02-08T01:13:16.476Z,102461.63
2023-02-08T01:15:43.607Z,102461.50
2023-02-08T01:18:10.884Z,102461.66
2023-02-08T01:20:37.734Z,102457.13
2023-02-08T01:23:04.784Z,102460.16
2023-02-08T01:25:32.443Z,102448.28
2023-02-08T01:27:59.283Z,102450.66
2023-02-08T01:30:26.920Z,102440.81
2023-02-08T01:32:53.473Z,102456.09
2023-02-08T01:35:19.904Z,102455.25
2023-02-08T01:37:46.595Z,102464.53
2023-02-08T01:40:14.029Z,102456.47
2023-02-08T01:42:40.412Z,102449.34
2023-02-08T01:45:25.568Z,102457.19
2023-02-08T01:48:03.405Z,102447.91
2023-02-08T01:50:39.685Z,102448.81
2023-02-08T01:53:08.376Z,102442.72
2023-02-08T01:55:39.719Z,102435.97
2023-02-08T01:58:09.110Z,102438.50
2023-02-08T02:00:35.522Z,102437.34
2023-02-08T02:03:04.781Z,102439.69
2023-02-08T02:05:39.958Z,102438.38
2023-02-08T02:08:07.905Z,102427.88
2023-02-08T02:10:36.495Z,102437.38
2023-02-08T02:13:07.298Z,102432.28
2023-02-08T02:15:34.167Z,102433.47
2023-02-08T02:18:02.385Z,102424.28
2023-02-08T02:20:39.607Z,102432.78
2023-02-08T02:23:28.072Z,102433.47
2023-02-08T02:26:16.894Z,102426.03
2023-02-08T02:29:13.067Z,102434.84
2023-02-08T02:31:54.893Z,102436.69
2023-02-08T02:34:46.336Z,102427.03
2023-02-08T02:37:37.786Z,102427.22
2023-02-08T02:40:43.493Z,102432.13
2023-02-08T02:43:33.469Z,102426.03
2023-02-08T02:46:28.721Z,102433.50
2023-02-08T02:49:15.191Z,102428.38
2023-02-08T02:51:58.508Z,102423.38
2023-02-08T02:54:49.687Z,102426.41
2023-02-08T02:57:20.336Z,102422.16
2023-02-08T02:59:47.148Z,102430.47
2023-02-08T03:02:14.111Z,102421.88
2023-02-08T03:04:40.712Z,102422.16
2023-02-08T03:07:19.603Z,102428.78
2023-02-08T03:10:04.897Z,102420.88
2023-02-08T03:13:09.137Z,102429.84
2023-02-08T03:15:54.352Z,102423.47
2023-02-08T03:18:48.044Z,102433.31
2023-02-08T03:21:38.487Z,102439.25
2023-02-08T03:24:23.221Z,102437.91
2023-02-08T03:26:58.652Z,102432.81
2023-02-08T03:29:49.246Z,102435.03
2023-02-08T03:32:39.087Z,102446.34
2023-02-08T03:35:10.704Z,102446.34
2023-02-08T03:37:44.411Z,102447.56
2023-02-08T03:40:18.731Z,102446.06
2023-02-08T03:42:46.712Z,102442.69
2023-02-08T03:45:36.512Z,102445.72
2023-02-08T03:48:05.279Z,102450.63
2023-02-08T03:50:34.749Z,102458.59
2023-02-08T03:53:02.125Z,102461.97
2023-02-08T03:55:31.464Z,102466.72
2023-02-08T03:58:06.301Z,102458.28
2023-02-08T04:00:37.090Z,102468.41
2023-02-08T04:03:12.388Z,102464.53
2023-02-08T04:05:38.882Z,102463.53
2023-02-08T04:08:05.484Z,102473.84
2023-02-08T04:10:31.939Z,102475.53
2023-02-08T04:12:58.797Z,102473.81
2023-02-08T04:15:27.525Z,102469.06
2023-02-08T04:17:55.062Z,102468.41
2023-02-08T04:20:21.718Z,102459.66
2023-02-08T04:22:48.459Z,102460.16
2023-02-08T04:25:15.046Z,102464.91
2023-02-08T04:27:41.551Z,102463.22
2023-02-08T04:30:08.570Z,102462.53
2023-02-08T04:32:35.037Z,102460.69
2023-02-08T04:35:01.480Z,102472.50
2023-02-08T04:37:28.169Z,102461.69
2023-02-08T04:39:54.573Z,102462.53
2023-02-08T04:42:21.237Z,102461.34
2023-02-08T04:44:48.033Z,102453.75
2023-02-08T04:47:14.366Z,102446.13
2023-02-08T04:49:41.051Z,102444.44
2023-02-08T04:52:07.506Z,102437.31
2023-02-08T04:54:34.170Z,102439.88
2023-02-08T04:57:05.851Z,102444.09
2023-02-08T04:59:32.453Z,102448.13
2023-02-08T05:01:59.038Z,102445.09
2023-02-08T05:04:25.465Z,102438.00
2023-02-08T05:06:51.913Z,102443.75
2023-02-08T05:09:19.400Z,102450.19
2023-02-08T05:11:45.838Z,102438.19
2023-02-08T05:14:12.279Z,102448.00
2023-02-08T05:16:38.700Z,102443.78
2023-02-08T05:19:05.173Z,102439.56
2023-02-08T05:21:31.668Z,102448.50
2023-02-08T05:23:58.117Z,102434.69
2023-02-08T05:26:25.720Z,102444.16
2023-02-08T05:28:52.226Z,102438.56
2023-02-08T05:31:24.169Z,102444.81
2023-02-08T05:33:51.850Z,102448.53
2023-02-08T05:36:19.479Z,102449.91
2023-02-08T05:38:45.923Z,102447.19
2023-02-08T05:41:12.409Z,102440.09
2023-02-08T05:43:39.052Z,102448.88
2023-02-08T05:46:05.622Z,102452.44
2023-02-08T05:48:32.283Z,102449.72
2023-02-08T05:50:59.480Z,102451.59
2023-02-08T05:53:26.176Z,102446.19
2023-02-08T05:55:52.943Z,102445.63
2023-02-08T05:58:19.532Z,102446.50
2023-02-08T06:00:46.221Z,102450.22
2023-02-08T06:03:12.812Z,102444.47
2023-02-08T06:05:40.569Z,102454.75
2023-02-08T06:08:07.358Z,102453.91
2023-02-08T06:10:33.941Z,102453.91
2023-02-08T06:13:01.534Z,102451.72
2023-02-08T06:15:28.300Z,102451.38
2023-02-08T06:17:59.147Z,102450.34
2023-02-08T06:20:25.638Z,102455.41
2023-02-08T06:22:52.117Z,102457.78
2023-02-08T06:25:18.593Z,102460.66
2023-02-08T06:27:45.400Z,102460.69
2023-02-08T06:30:12.192Z,102469.63
2023-02-08T06:32:38.950Z,102467.06
2023-02-08T06:35:05.664Z,102475.69
2023-02-08T06:37:32.095Z,102483.13
2023-02-08T06:39:59.052Z,102482.09
2023-02-08T06:42:28.969Z,102484.66
2023-02-08T06:44:56.026Z,102479.72
2023-02-08T06:47:23.262Z,102487.84
2023-02-08T06:50:04.264Z,102490.34
2023-02-08T06:52:30.965Z,102488.78
2023-02-08T06:54:57.407Z,102489.28
2023-02-08T06:57:24.325Z,102498.38
2023-02-08T06:59:59.726Z,102492.22
2023-02-08T07:02:26.470Z,102498.38
2023-02-08T07:04:53.664Z,102486.91
2023-02-08T07:07:20.186Z,102492.00
2023-02-08T07:09:46.941Z,102493.94
2023-02-08T07:12:13.459Z,102487.66
2023-02-08T07:14:41.524Z,102488.03
2023-02-08T07:17:08.037Z,102486.94
2023-02-08T07:19:34.446Z,102481.75
2023-02-08T07:22:07.247Z,102481.75
2023-02-08T07:24:38.840Z,102482.16
2023-02-08T07:27:06.958Z,102484.69
2023-02-08T07:29:33.896Z,102482.59
2023-02-08T07:32:01.491Z,102481.19
2023-02-08T07:34:33.063Z,102480.03
2023-02-08T07:36:59.510Z,102481.22
2023-02-08T07:39:26.364Z,102483.16
2023-02-08T07:41:53.218Z,102475.41
2023-02-08T07:44:19.685Z,102477.06
2023-02-08T07:46:46.198Z,102474.97
2023-02-08T07:49:12.654Z,102478.84
2023-02-08T07:51:39.065Z,102475.19
2023-02-08T07:54:05.491Z,102466.00
2023-02-08T07:56:32.083Z,102469.84
2023-02-08T07:58:58.527Z,102470.22
2023-02-08T08:01:25.030Z,102477.63
2023-02-08T08:03:52.019Z,102476.19
2023-02-08T08:06:19.889Z,102479.97
2023-02-08T08:08:47.751Z,102479.91
2023-02-08T08:11:15.453Z,102480.31
2023-02-08T08:13:42.169Z,102482.53
2023-02-08T08:16:08.841Z,102486.84
2023-02-08T08:18:36.075Z,102481.53
2023-02-08T08:21:03.165Z,102481.09
2023-02-08T08:23:29.930Z,102493.00
2023-02-08T08:25:56.432Z,102490.69
2023-02-08T08:28:23.119Z,102493.56
2023-02-08T08:30:49.764Z,102490.38
2023-02-08T08:33:16.315Z,102487.31
2023-02-08T08:35:43.895Z,102486.34
2023-02-08T08:38:10.707Z,102483.88
2023-02-08T08:40:37.369Z,102494.78
2023-02-08T08:43:03.959Z,102493.47
2023-02-08T08:45:30.371Z,102501.94
2023-02-08T08:47:56.901Z,102487.66
2023-02-08T08:50:23.453Z,102507.13
2023-02-08T08:52:49.898Z,102502.00
2023-02-08T08:55:16.617Z,102487.00
2023-02-08T08:57:43.356Z,102493.28
2023-02-08T09:00:10.835Z,102490.53
2023-02-08T09:02:37.622Z,102492.19
2023-02-08T09:05:05.496Z,102500.16
2023-02-08T09:07:32.973Z,102491.84
2023-02-08T09:09:59.416Z,102497.72
2023-02-08T09:12:25.812Z,102499.44
2023-02-08T09:14:52.347Z,102503.81
2023-02-08T09:17:19.109Z,102505.66
2023-02-08T09:19:47.227Z,102503.88
2023-02-08T09:22:14.087Z,102506.66
2023-02-08T09:24:40.848Z,102497.47
2023-02-08T09:27:07.358Z,102515.66
2023-02-08T09:29:34.396Z,102512.41
2023-02-08T09:32:01.424Z,102505.22
2023-02-08T09:34:28.016Z,102511.09
2023-02-08T09:36:54.785Z,102520.59
2023-02-08T09:39:23.785Z,102517.97
2023-02-08T09:42:28.225Z,102508.66
2023-02-08T09:45:07.137Z,102513.56
2023-02-08T09:47:44.786Z,102504.31
2023-02-08T09:50:19.830Z,102521.34
2023-02-08T09:53:02.671Z,102517.66
2023-02-08T09:55:39.775Z,102519.41
2023-02-08T09:58:19.988Z,102529.34
2023-02-08T10:00:48.837Z,102523.38
2023-02-08T10:03:25.000Z,102519.19
2023-02-08T10:05:51.442Z,102511.47
2023-02-08T10:08:17.984Z,102507.19
2023-02-08T10:10:55.557Z,102527.16
2023-02-08T10:13:41.143Z,102508.41
2023-02-08T10:16:17.581Z,102516.84
2023-02-08T10:19:01.436Z,102509.56
2023-02-08T10:21:38.549Z,102518.22
2023-02-08T10:24:25.936Z,102505.38
2023-02-08T10:27:11.237Z,102495.81
2023-02-08T10:29:52.613Z,102509.69
2023-02-08T10:32:35.606Z,102511.03
2023-02-08T10:35:07.447Z,102504.16
2023-02-08T10:37:35.513Z,102504.28
2023-02-08T10:40:26.482Z,102492.50
2023-02-08T10:43:19.623Z,102486.75
2023-02-08T10:45:53.209Z,102470.69
2023-02-08T10:48:50.019Z,102482.84
2023-02-08T10:51:18.615Z,102479.91
2023-02-08T10:53:45.612Z,102466.28
2023-02-08T10:56:43.842Z,102470.47
2023-02-08T10:59:16.694Z,102456.94
2023-02-08T11:01:45.418Z,102454.28
2023-02-08T11:04:12.885Z,102442.25
2023-02-08T11:06:41.265Z,102436.03
2023-02-08T11:09:23.441Z,102445.88
2023-02-08T11:11:53.182Z,102434.38
2023-02-08T11:14:47.155Z,102433.06
2023-02-08T11:17:29.827Z,102442.56
2023-02-08T11:19:56.999Z,102439.00
2023-02-08T11:22:25.162Z,102427.41
2023-02-08T11:24:57.718Z,102423.59
2023-02-08T11:27:36.291Z,102426.41
2023-02-08T11:30:24.161Z,102429.25
2023-02-08T11:33:18.577Z,102425.41
2023-02-08T11:35:53.968Z,102446.88
2023-02-08T11:38:27.279Z,102437.41
2023-02-08T11:40:56.750Z,102441.63
2023-02-08T11:43:29.711Z,102436.56
2023-02-08T11:45:57.910Z,102430.09
2023-02-08T11:48:38.662Z,102430.22
2023-02-08T11:51:05.858Z,102431.22
2023-02-08T11:53:46.850Z,102437.78
2023-02-08T11:56:25.434Z,102429.63
2023-02-08T11:59:14.847Z,102433.00
2023-02-08T12:01:42.292Z,102428.72
2023-02-08T12:04:11.280Z,102425.22
2023-02-08T12:06:56.623Z,102418.22
2023-02-08T12:10:02.084Z,102433.34
2023-02-08T12:13:07.101Z,102427.81
2023-02-08T12:15:58.255Z,102428.81
2023-02-08T12:18:38.433Z,102420.41
2023-02-08T12:21:23.191Z,102417.31
2023-02-08T12:24:03.388Z,102412.50
2023-02-08T12:26:54.926Z,102413.84
2023-02-08T12:29:47.802Z,102402.75
2023-02-08T12:32:43.212Z,102401.13
2023-02-08T12:36:01.560Z,102400.88
2023-02-08T12:39:18.568Z,102407.09
2023-02-08T12:42:14.771Z,102412.03
2023-02-08T12:45:18.630Z,102394.81
2023-02-08T12:48:10.059Z,102401.66
2023-02-08T12:50:56.721Z,102405.97
2023-02-08T12:53:40.335Z,102410.66
2023-02-08T12:56:13.254Z,102402.09
2023-02-08T12:58:48.158Z,102407.63
2023-02-08T13:01:23.303Z,102391.44
2023-02-08T13:04:12.187Z,102396.59
2023-02-08T13:06:43.778Z,102400.09
2023-02-08T13:09:36.371Z,102386.25
2023-02-08T13:12:08.731Z,102384.72
2023-02-08T13:14:39.133Z,102374.25
2023-02-08T13:17:30.142Z,102364.84
2023-02-08T13:20:05.702Z,102357.81
2023-02-08T13:22:35.930Z,102375.88
2023-02-08T13:25:07.980Z,102356.16
2023-02-08T13:27:35.034Z,102360.91
2023-02-08T13:30:01.836Z,102355.97
2023-02-08T13:32:30.499Z,102349.75
2023-02-08T13:35:01.343Z,102345.19
2023-02-08T13:37:31.702Z,102329.22
2023-02-08T13:40:01.360Z,102342.97
2023-02-08T13:42:38.262Z,102353.81
2023-02-08T13:45:06.438Z,102343.63
2023-02-08T13:47:42.687Z,102351.88
2023-02-08T13:50:29.232Z,102347.41
2023-02-08T13:52:56.108Z,102344.16
2023-02-08T13:55:29.001Z,102339.75
2023-02-08T13:57:57.863Z,102338.06
2023-02-08T14:00:35.539Z,102351.84
2023-02-08T14:03:20.700Z,102351.41
2023-02-08T14:05:53.989Z,102345.06
2023-02-08T14:08:30.634Z,102352.44
2023-02-08T14:11:17.376Z,102348.41
2023-02-08T14:13:52.472Z,102342.63
2023-02-08T14:16:26.461Z,102351.69
2023-02-08T14:18:54.835Z,102338.84
2023-02-08T14:21:38.230Z,102340.72
2023-02-08T14:24:17.394Z,102336.84
2023-02-08T14:26:44.899Z,102343.72
2023-02-08T14:29:21.700Z,102329.13
2023-02-08T14:31:48.364Z,102333.28
2023-02-08T14:34:35.637Z,102342.16
2023-02-08T14:37:26.659Z,102343.09
2023-02-08T14:40:21.286Z,102339.72
2023-02-08T14:43:19.710Z,102341.78
2023-02-08T14:45:48.681Z,102348.72
2023-02-08T14:48:24.282Z,102325.53
2023-02-08T14:50:54.076Z,102325.06
2023-02-08T14:53:33.824Z,102321.97
2023-02-08T14:56:13.644Z,102336.63
2023-02-08T14:58:42.429Z,102321.25
2023-02-08T15:01:27.636Z,102334.47
2023-02-08T15:04:01.822Z,102325.28
2023-02-08T15:06:34.799Z,102332.84
2023-02-08T15:09:01.428Z,102330.66
2023-02-08T15:11:33.427Z,102318.56
2023-02-08T15:14:02.242Z,102326.81
2023-02-08T15:16:35.592Z,102325.91
2023-02-08T15:19:04.341Z,102318.97
2023-02-08T15:21:32.409Z,102320.16
2023-02-08T15:24:14.500Z,102315.25
2023-02-08T15:26:53.480Z,102303.78
2023-02-08T15:29:32.703Z,102308.66
2023-02-08T15:32:02.303Z,102309.63
2023-02-08T15:34:28.670Z,102302.78
2023-02-08T15:36:56.469Z,102292.09
2023-02-08T15:39:34.727Z,102293.88
2023-02-08T15:42:02.220Z,102305.78
2023-02-08T15:44:30.580Z,102300.25
2023-02-08T15:47:02.965Z,102295.69
2023-02-08T15:49:39.468Z,102291.88
2023-02-08T15:52:06.651Z,102294.09
2023-02-08T15:54:33.246Z,102291.13
2023-02-08T15:57:07.872Z,102294.03
2023-02-08T15:59:37.690Z,102294.09
2023-02-08T16:02:21.026Z,102288.69
2023-02-08T16:04:47.478Z,102283.91
2023-02-08T16:07:27.317Z,102286.72
2023-02-08T16:09:54.599Z,102285.28
2023-02-08T16:12:23.265Z,102279.41
2023-02-08T16:14:52.745Z,102276.06
2023-02-08T16:17:33.354Z,102278.06
2023-02-08T16:19:59.732Z,102276.72
2023-02-08T16:22:31.055Z,102283.88
2023-02-08T16:25:23.460Z,102284.94
2023-02-08T16:27:49.917Z,102280.97
2023-02-08T16:30:21.168Z,102276.72
2023-02-08T16:32:48.613Z,102283.94
2023-02-08T16:35:22.121Z,102267.28
2023-02-08T16:37:54.563Z,102277.31
2023-02-08T16:40:57.998Z,102273.28
2023-02-08T16:43:29.732Z,102274.03
2023-02-08T16:46:11.494Z,102269.84
2023-02-08T16:48:52.981Z,102269.91
2023-02-08T16:51:28.182Z,102261.06
2023-02-08T16:53:56.785Z,102258.94
2023-02-08T16:56:27.474Z,102257.09
2023-02-08T16:58:53.931Z,102256.91
2023-02-08T17:01:23.043Z,102255.31
2023-02-08T17:03:50.298Z,102256.16
2023-02-08T17:06:25.408Z,102254.13
2023-02-08T17:08:52.113Z,102256.88
2023-02-08T17:11:18.646Z,102255.03
2023-02-08T17:13:45.305Z,102259.66
2023-02-08T17:16:18.190Z,102260.78
2023-02-08T17:18:49.287Z,102266.03
2023-02-08T17:21:16.421Z,102263.06
2023-02-08T17:23:43.955Z,102274.06
2023-02-08T17:26:20.383Z,102263.16
2023-02-08T17:28:46.771Z,102270.13
2023-02-08T17:31:14.346Z,102261.28
2023-02-08T17:33:41.380Z,102252.59
2023-02-08T17:36:10.366Z,102250.28
2023-02-08T17:38:40.323Z,102247.56
2023-02-08T17:41:10.149Z,102249.84
2023-02-08T17:43:37.477Z,102250.56
2023-02-08T17:46:11.329Z,102245.94
2023-02-08T17:48:37.726Z,102249.38
2023-02-08T17:51:16.142Z,102246.69
2023-02-08T17:53:43.859Z,102237.22
2023-02-08T17:56:13.263Z,102229.44
2023-02-08T17:58:40.865Z,102233.69
2023-02-08T18:01:17.654Z,102236.50
2023-02-08T18:03:45.234Z,102234.25
2023-02-08T18:06:12.001Z,102241.00
2023-02-08T18:08:39.181Z,102234.97
2023-02-08T18:11:12.616Z,102230.28
2023-02-08T18:13:41.813Z,102236.03
2023-02-08T18:16:14.599Z,102234.78
2023-02-08T18:18:41.061Z,102220.94
2023-02-08T18:21:13.230Z,102222.97
2023-02-08T18:23:40.163Z,102216.72
2023-02-08T18:26:08.618Z,102227.47
2023-02-08T18:28:35.180Z,102226.81
2023-02-08T18:31:03.812Z,102222.22
2023-02-08T18:33:30.665Z,102224.13
2023-02-08T18:35:57.064Z,102217.19
2023-02-08T18:38:23.648Z,102219.75
2023-02-08T18:40:50.071Z,102226.50
2023-02-08T18:43:17.881Z,102221.66
2023-02-08T18:45:45.982Z,102229.84
2023-02-08T18:48:12.736Z,102223.94
2023-02-08T18:50:39.121Z,102213.88
2023-02-08T18:53:05.504Z,102217.00
2023-02-08T18:55:32.284Z,102215.47
2023-02-08T18:57:58.608Z,102205.59
2023-02-08T19:00:25.098Z,102208.19
2023-02-08T19:02:51.851Z,102198.25
2023-02-08T19:05:18.333Z,102189.03
2023-02-08T19:07:46.575Z,102191.53
2023-02-08T19:10:13.004Z,102179.31
2023-02-08T19:12:39.693Z,102191.94
2023-02-08T19:15:06.768Z,102182.06
2023-02-08T19:17:33.485Z,102181.41
2023-02-08T19:19:59.888Z,102172.19
2023-02-08T19:22:26.453Z,102161.63
2023-02-08T19:24:59.433Z,102165.16
2023-02-08T19:27:27.110Z,102154.25
2023-02-08T19:29:58.625Z,102147.50
2023-02-08T19:32:25.063Z,102145.78
2023-02-08T19:34:51.548Z,102147.28
2023-02-08T19:37:19.036Z,102141.84
2023-02-08T19:39:45.827Z,102137.31
2023-02-08T19:42:12.385Z,102143.97
2023-02-08T19:44:38.822Z,102138.09
2023-02-08T19:47:06.014Z,102137.44
2023-02-08T19:49:32.472Z,102130.94
2023-02-08T19:51:59.011Z,102122.13
2023-02-08T19:54:25.612Z,102127.16
2023-02-08T19:56:54.705Z,102133.06
2023-02-08T19:59:26.691Z,102129.50
2023-02-08T20:01:55.352Z,102129.66
2023-02-08T20:04:22.216Z,102121.75
2023-02-08T20:06:51.299Z,102116.66
2023-02-08T20:09:17.726Z,102119.63
2023-02-08T20:11:56.316Z,102114.78
2023-02-08T20:14:24.090Z,102120.47
2023-02-08T20:16:50.565Z,102101.50
2023-02-08T20:19:17.122Z,102108.19
2023-02-08T20:21:45.306Z,102101.25
2023-02-08T20:24:12.107Z,102097.19
2023-02-08T20:26:49.908Z,102088.13
2023-02-08T20:29:17.280Z,102084.50
2023-02-08T20:31:47.464Z,102079.47
2023-02-08T20:34:15.072Z,102082.66
2023-02-08T20:37:04.464Z,102079.31
2023-02-08T20:39:32.635Z,102076.03
2023-02-08T20:41:59.310Z,102074.69
2023-02-08T20:44:25.752Z,102074.00
2023-02-08T20:46:54.572Z,102074.91
2023-02-08T20:49:25.294Z,102067.31
2023-02-08T20:51:53.642Z,102065.03
2023-02-08T20:54:20.138Z,102064.59
2023-02-08T20:56:46.570Z,102058.22
2023-02-08T20:59:15.676Z,102061.84
2023-02-08T21:01:44.044Z,102049.47
2023-02-08T21:04:11.597Z,102048.03
2023-02-08T21:06:38.491Z,102045.13
2023-02-08T21:09:11.768Z,102047.78
2023-02-08T21:11:38.327Z,102047.41
2023-02-08T21:14:07.715Z,102034.94
2023-02-08T21:16:34.214Z,102032.22
2023-02-08T21:19:00.758Z,102029.03
2023-02-08T21:21:29.430Z,102029.88
2023-02-08T21:23:58.041Z,102027.22
2023-02-08T21:26:25.389Z,102014.47
2023-02-08T21:28:53.290Z,102018.41
2023-02-08T21:31:22.045Z,102015.84
2023-02-08T21:33:49.280Z,102017.66
2023-02-08T21:36:19.010Z,102007.03
2023-02-08T21:38:46.265Z,102002.31
2023-02-08T21:41:24.803Z,101997.94
2023-02-08T21:43:53.692Z,102008.81
2023-02-08T21:46:20.568Z,101987.66
2023-02-08T21:49:06.166Z,101979.31
2023-02-08T21:51:51.627Z,101979.38
2023-02-08T21:54:40.423Z,101978.78
2023-02-08T21:57:15.927Z,101986.75
2023-02-08T21:59:42.978Z,101966.16
2023-02-08T22:02:23.010Z,101958.69
2023-02-08T22:05:08.945Z,101960.22
2023-02-08T22:07:44.446Z,101961.88
2023-02-08T22:10:14.546Z,101961.94
2023-02-08T22:12:42.098Z,101954.41
2023-02-08T22:15:10.776Z,101959.78
2023-02-08T22:17:37.172Z,101944.91
2023-02-08T22:20:04.418Z,101961.56
2023-02-08T22:22:31.543Z,101948.59
2023-02-08T22:24:58.158Z,101955.84
2023-02-08T22:27:24.618Z,101946.28
2023-02-08T22:29:52.056Z,101944.25
2023-02-08T22:32:18.504Z,101944.03
2023-02-08T22:34:48.482Z,101939.38
2023-02-08T22:37:16.160Z,101943.03
2023-02-08T22:39:42.914Z,101942.91
2023-02-08T22:42:13.245Z,101943.13
2023-02-08T22:44:41.130Z,101938.56
2023-02-08T22:47:08.545Z,101938.84
2023-02-08T22:49:45.297Z,101932.69
2023-02-08T22:52:12.154Z,101933.72
2023-02-08T22:54:38.750Z,101927.69
2023-02-08T22:57:06.275Z,101924.19
2023-02-08T22:59:34.374Z,101915.16
2023-02-08T23:02:01.712Z,101919.66
2023-02-08T23:04:28.572Z,101898.59
2023-02-08T23:06:55.863Z,101897.31
2023-02-08T23:09:23.472Z,101907.19
2023-02-08T23:11:49.946Z,101908.91
2023-02-08T23:14:16.593Z,101899.03
2023-02-08T23:16:43.085Z,101908.78
2023-02-08T23:19:18.249Z,101898.88
2023-02-08T23:21:44.994Z,101907.56
2023-02-08T23:24:12.225Z,101893.34
2023-02-08T23:26:39.097Z,101894.09
2023-02-08T23:29:05.599Z,101896.53
2023-02-08T23:31:32.196Z,101888.03
2023-02-08T23:34:00.425Z,101887.34
2023-02-08T23:36:27.097Z,101881.88
2023-02-08T23:38:56.684Z,101890.63
2023-02-08T23:41:24.142Z,101884.56
2023-02-08T23:43:52.108Z,101885.47
2023-02-08T23:46:21.908Z,101899.75
2023-02-08T23:48:49.061Z,101892.59
2023-02-08T23:51:17.448Z,101885.56
2023-02-08T23:53:44.562Z,101883.50
2023-02-08T23:56:18.106Z,101888.66
2023-02-08T23:58:46.609Z,101892.59
